Summerland, Canada
Current Conditions -  °F | °C
As of 1:00 PM on Friday 31 Oct 2014 (Local Time) from CYYF Reporting Station
Overcast Overcast  
Wind Chill: 55°   Ceiling: 2500
Heat Index: 55°   Visibility: 15mi
Dew Point: 50°   Wind: 10mph
Humidity: 82%   Direction: 160°SSE
Pressure: 29.66"   Gusts: 17mph
Location:  49.6°N, 119.68°W
Report Text: CYYF 312000Z 16009G15KT 15SM FEW015 BKN025 OVC089 13/10 A2966 RMK SF2SC4AC2 SLP048 DENSITY ALT 1300FT
Loading
Personal Weather Stations






























Interactive Weather Map
Tropical Storm Tracking
New forecast layout! Learn more

10-Day Weather Forecast

Advertisements
Track Severe Weather on mobile